sensor_id;sensor_type;location;lat;lon;timestamp;pressure;altitude;pressure_sealevel;temperature
75431;BMP280;64127;51.488;5.462;2024-01-07T00:01:36;101489.44;;;6.75
75431;BMP280;64127;51.488;5.462;2024-01-07T00:04:08;101490.66;;;6.80
75431;BMP280;64127;51.488;5.462;2024-01-07T00:06:40;101490.66;;;6.80
75431;BMP280;64127;51.488;5.462;2024-01-07T00:09:13;101494.06;;;6.79
75431;BMP280;64127;51.488;5.462;2024-01-07T00:11:45;101497.69;;;6.81
75431;BMP280;64127;51.488;5.462;2024-01-07T00:14:17;101500.09;;;6.78
75431;BMP280;64127;51.488;5.462;2024-01-07T00:16:48;101506.28;;;6.80
75431;BMP280;64127;51.488;5.462;2024-01-07T00:19:20;101507.97;;;6.79
75431;BMP280;64127;51.488;5.462;2024-01-07T00:21:53;101504.38;;;6.77
75431;BMP280;64127;51.488;5.462;2024-01-07T00:24:25;101509.19;;;6.71
75431;BMP280;64127;51.488;5.462;2024-01-07T00:27:00;101514.81;;;6.77
75431;BMP280;64127;51.488;5.462;2024-01-07T00:29:32;101507.28;;;6.82
75431;BMP280;64127;51.488;5.462;2024-01-07T00:32:06;101511.69;;;6.83
75431;BMP280;64127;51.488;5.462;2024-01-07T00:34:38;101514.22;;;6.81
75431;BMP280;64127;51.488;5.462;2024-01-07T00:37:10;101509.88;;;6.82
75431;BMP280;64127;51.488;5.462;2024-01-07T00:39:42;101515.31;;;6.85
75431;BMP280;64127;51.488;5.462;2024-01-07T00:42:17;101518.91;;;6.87
75431;BMP280;64127;51.488;5.462;2024-01-07T00:44:49;101519.91;;;6.89
75431;BMP280;64127;51.488;5.462;2024-01-07T00:47:21;101518.34;;;6.91
75431;BMP280;64127;51.488;5.462;2024-01-07T00:49:53;101523.53;;;6.91
75431;BMP280;64127;51.488;5.462;2024-01-07T00:52:25;101523.72;;;6.94
75431;BMP280;64127;51.488;5.462;2024-01-07T00:54:58;101532.13;;;6.90
75431;BMP280;64127;51.488;5.462;2024-01-07T00:57:30;101528.53;;;6.88
75431;BMP280;64127;51.488;5.462;2024-01-07T01:00:05;101534.34;;;6.84
75431;BMP280;64127;51.488;5.462;2024-01-07T01:02:38;101533.94;;;6.78
75431;BMP280;64127;51.488;5.462;2024-01-07T01:05:10;101544.13;;;6.75
75431;BMP280;64127;51.488;5.462;2024-01-07T01:07:42;101545.53;;;6.70
75431;BMP280;64127;51.488;5.462;2024-01-07T01:10:14;101545.00;;;6.62
75431;BMP280;64127;51.488;5.462;2024-01-07T01:12:49;101556.31;;;6.62
75431;BMP280;64127;51.488;5.462;2024-01-07T01:15:24;101558.13;;;6.63
75431;BMP280;64127;51.488;5.462;2024-01-07T01:17:56;101560.75;;;6.63
75431;BMP280;64127;51.488;5.462;2024-01-07T01:20:28;101557.09;;;6.61
75431;BMP280;64127;51.488;5.462;2024-01-07T01:23:00;101557.94;;;6.60
75431;BMP280;64127;51.488;5.462;2024-01-07T01:25:32;101558.94;;;6.62
75431;BMP280;64127;51.488;5.462;2024-01-07T01:28:04;101556.19;;;6.61
75431;BMP280;64127;51.488;5.462;2024-01-07T01:30:36;101566.31;;;6.56
75431;BMP280;64127;51.488;5.462;2024-01-07T01:33:08;101540.44;;;6.33
75431;BMP280;64127;51.488;5.462;2024-01-07T01:35:41;101560.25;;;6.44
75431;BMP280;64127;51.488;5.462;2024-01-07T01:38:13;101565.47;;;6.44
75431;BMP280;64127;51.488;5.462;2024-01-07T01:40:52;101563.03;;;6.34
75431;BMP280;64127;51.488;5.462;2024-01-07T01:43:28;101573.88;;;6.40
75431;BMP280;64127;51.488;5.462;2024-01-07T01:46:02;101571.66;;;6.33
75431;BMP280;64127;51.488;5.462;2024-01-07T01:48:36;101583.19;;;6.37
75431;BMP280;64127;51.488;5.462;2024-01-07T01:51:09;101585.78;;;6.37
75431;BMP280;64127;51.488;5.462;2024-01-07T01:53:42;101574.84;;;6.29
75431;BMP280;64127;51.488;5.462;2024-01-07T01:56:19;101583.75;;;6.33
75431;BMP280;64127;51.488;5.462;2024-01-07T01:58:52;101589.97;;;6.35
75431;BMP280;64127;51.488;5.462;2024-01-07T02:01:24;101585.25;;;6.29
75431;BMP280;64127;51.488;5.462;2024-01-07T02:03:57;101587.94;;;6.31
75431;BMP280;64127;51.488;5.462;2024-01-07T02:06:29;101601.50;;;6.38
75431;BMP280;64127;51.488;5.462;2024-01-07T02:09:02;101598.88;;;6.38
75431;BMP280;64127;51.488;5.462;2024-01-07T02:11:35;101592.41;;;6.45
75431;BMP280;64127;51.488;5.462;2024-01-07T02:14:07;101601.91;;;6.44
75431;BMP280;64127;51.488;5.462;2024-01-07T02:16:39;101597.16;;;6.50
75431;BMP280;64127;51.488;5.462;2024-01-07T02:19:11;101597.34;;;6.53
75431;BMP280;64127;51.488;5.462;2024-01-07T02:21:43;101607.06;;;6.56
75431;BMP280;64127;51.488;5.462;2024-01-07T02:24:16;101604.47;;;6.56
75431;BMP280;64127;51.488;5.462;2024-01-07T02:26:48;101614.31;;;6.60
75431;BMP280;64127;51.488;5.462;2024-01-07T02:29:20;101597.56;;;6.56
75431;BMP280;64127;51.488;5.462;2024-01-07T02:31:52;101601.88;;;6.56
75431;BMP280;64127;51.488;5.462;2024-01-07T02:34:24;101604.34;;;6.54
75431;BMP280;64127;51.488;5.462;2024-01-07T02:36:56;101591.28;;;6.41
75431;BMP280;64127;51.488;5.462;2024-01-07T02:39:29;101606.88;;;6.53
75431;BMP280;64127;51.488;5.462;2024-01-07T02:42:01;101616.94;;;6.48
75431;BMP280;64127;51.488;5.462;2024-01-07T02:44:33;101624.75;;;6.48
75431;BMP280;64127;51.488;5.462;2024-01-07T02:47:05;101621.16;;;6.46
75431;BMP280;64127;51.488;5.462;2024-01-07T02:49:37;101618.56;;;6.46
75431;BMP280;64127;51.488;5.462;2024-01-07T02:52:09;101627.16;;;6.45
75431;BMP280;64127;51.488;5.462;2024-01-07T02:54:41;101624.41;;;6.44
75431;BMP280;64127;51.488;5.462;2024-01-07T02:57:14;101626.94;;;6.42
75431;BMP280;64127;51.488;5.462;2024-01-07T02:59:46;101629.41;;;6.41
75431;BMP280;64127;51.488;5.462;2024-01-07T03:02:18;101629.53;;;6.42
75431;BMP280;64127;51.488;5.462;2024-01-07T03:04:50;101625.47;;;6.34
75431;BMP280;64127;51.488;5.462;2024-01-07T03:07:22;101633.75;;;6.40
75431;BMP280;64127;51.488;5.462;2024-01-07T03:09:54;101638.47;;;6.46
75431;BMP280;64127;51.488;5.462;2024-01-07T03:12:26;101640.16;;;6.45
75431;BMP280;64127;51.488;5.462;2024-01-07T03:14:58;101647.41;;;6.38
75431;BMP280;64127;51.488;5.462;2024-01-07T03:17:31;101647.00;;;6.32
75431;BMP280;64127;51.488;5.462;2024-01-07T03:20:03;101643.84;;;6.24
75431;BMP280;64127;51.488;5.462;2024-01-07T03:22:35;101659.47;;;6.24
75431;BMP280;64127;51.488;5.462;2024-01-07T03:25:08;101650.16;;;6.28
75431;BMP280;64127;51.488;5.462;2024-01-07T03:27:40;101650.59;;;6.34
75431;BMP280;64127;51.488;5.462;2024-01-07T03:30:12;101652.41;;;6.35
75431;BMP280;64127;51.488;5.462;2024-01-07T03:32:44;101653.13;;;6.32
75431;BMP280;64127;51.488;5.462;2024-01-07T03:35:16;101648.69;;;6.31
75431;BMP280;64127;51.488;5.462;2024-01-07T03:37:48;101652.63;;;6.38
75431;BMP280;64127;51.488;5.462;2024-01-07T03:40:20;101656.94;;;6.37
75431;BMP280;64127;51.488;5.462;2024-01-07T03:42:52;101650.16;;;6.39
75431;BMP280;64127;51.488;5.462;2024-01-07T03:45:24;101666.31;;;6.47
75431;BMP280;64127;51.488;5.462;2024-01-07T03:47:57;101659.63;;;6.50
75431;BMP280;64127;51.488;5.462;2024-01-07T03:50:30;101662.09;;;6.49
75431;BMP280;64127;51.488;5.462;2024-01-07T03:53:02;101666.53;;;6.50
75431;BMP280;64127;51.488;5.462;2024-01-07T03:55:34;101665.97;;;6.42
75431;BMP280;64127;51.488;5.462;2024-01-07T03:58:06;101669.16;;;6.38
75431;BMP280;64127;51.488;5.462;2024-01-07T04:00:38;101676.25;;;6.41
75431;BMP280;64127;51.488;5.462;2024-01-07T04:03:10;101675.25;;;6.39
75431;BMP280;64127;51.488;5.462;2024-01-07T04:05:44;101681.59;;;6.42
75431;BMP280;64127;51.488;5.462;2024-01-07T04:08:17;101679.78;;;6.41
75431;BMP280;64127;51.488;5.462;2024-01-07T04:10:50;101683.41;;;6.43
75431;BMP280;64127;51.488;5.462;2024-01-07T04:13:22;101684.78;;;6.38
75431;BMP280;64127;51.488;5.462;2024-01-07T04:15:54;101685.56;;;6.37
75431;BMP280;64127;51.488;5.462;2024-01-07T04:18:26;101682.94;;;6.37
75431;BMP280;64127;51.488;5.462;2024-01-07T04:20:58;101691.34;;;6.33
75431;BMP280;64127;51.488;5.462;2024-01-07T04:23:30;101692.94;;;6.31
75431;BMP280;64127;51.488;5.462;2024-01-07T04:26:02;101698.81;;;6.29
75431;BMP280;64127;51.488;5.462;2024-01-07T04:28:34;101707.75;;;6.32
75431;BMP280;64127;51.488;5.462;2024-01-07T04:31:06;101699.03;;;6.32
75431;BMP280;64127;51.488;5.462;2024-01-07T04:33:38;101697.44;;;6.34
75431;BMP280;64127;51.488;5.462;2024-01-07T04:36:10;101708.31;;;6.28
75431;BMP280;64127;51.488;5.462;2024-01-07T04:38:42;101705.38;;;6.24
75431;BMP280;64127;51.488;5.462;2024-01-07T04:41:14;101678.28;;;5.97
75431;BMP280;64127;51.488;5.462;2024-01-07T04:43:46;101710.84;;;6.15
75431;BMP280;64127;51.488;5.462;2024-01-07T04:46:18;101715.81;;;6.12
75431;BMP280;64127;51.488;5.462;2024-01-07T04:48:50;101724.41;;;6.11
75431;BMP280;64127;51.488;5.462;2024-01-07T04:51:22;101718.00;;;6.06
75431;BMP280;64127;51.488;5.462;2024-01-07T04:53:54;101719.78;;;6.07
75431;BMP280;64127;51.488;5.462;2024-01-07T04:56:26;101727.34;;;6.04
75431;BMP280;64127;51.488;5.462;2024-01-07T04:58:58;101732.13;;;5.98
75431;BMP280;64127;51.488;5.462;2024-01-07T05:01:33;101730.75;;;5.91
75431;BMP280;64127;51.488;5.462;2024-01-07T05:04:05;101734.81;;;5.88
75431;BMP280;64127;51.488;5.462;2024-01-07T05:06:38;101726.25;;;5.89
75431;BMP280;64127;51.488;5.462;2024-01-07T05:09:10;101732.31;;;5.89
75431;BMP280;64127;51.488;5.462;2024-01-07T05:11:42;101734.50;;;5.95
75431;BMP280;64127;51.488;5.462;2024-01-07T05:14:14;101736.88;;;5.92
75431;BMP280;64127;51.488;5.462;2024-01-07T05:16:46;101742.28;;;5.95
75431;BMP280;64127;51.488;5.462;2024-01-07T05:19:18;101739.78;;;5.96
75431;BMP280;64127;51.488;5.462;2024-01-07T05:21:50;101736.75;;;6.02
75431;BMP280;64127;51.488;5.462;2024-01-07T05:24:22;101754.06;;;6.01
75431;BMP280;64127;51.488;5.462;2024-01-07T05:26:54;101751.53;;;6.03
75431;BMP280;64127;51.488;5.462;2024-01-07T05:29:26;101753.38;;;6.04
75431;BMP280;64127;51.488;5.462;2024-01-07T05:31:58;101757.22;;;5.97
75431;BMP280;64127;51.488;5.462;2024-01-07T05:34:32;101754.25;;;5.93
75431;BMP280;64127;51.488;5.462;2024-01-07T05:37:04;101768.75;;;6.01
75431;BMP280;64127;51.488;5.462;2024-01-07T05:39:36;101766.72;;;5.97
75431;BMP280;64127;51.488;5.462;2024-01-07T05:42:08;101768.06;;;5.92
75431;BMP280;64127;51.488;5.462;2024-01-07T05:44:40;101775.41;;;5.86
75431;BMP280;64127;51.488;5.462;2024-01-07T05:47:12;101779.69;;;5.85
75431;BMP280;64127;51.488;5.462;2024-01-07T05:49:45;101783.47;;;5.89
75431;BMP280;64127;51.488;5.462;2024-01-07T05:52:17;101784.34;;;5.89
75431;BMP280;64127;51.488;5.462;2024-01-07T05:54:49;101788.41;;;5.86
75431;BMP280;64127;51.488;5.462;2024-01-07T05:57:21;101787.97;;;5.91
75431;BMP280;64127;51.488;5.462;2024-01-07T05:59:53;101773.28;;;5.92
75431;BMP280;64127;51.488;5.462;2024-01-07T06:02:25;101794.31;;;5.95
75431;BMP280;64127;51.488;5.462;2024-01-07T06:04:57;101798.16;;;5.88
75431;BMP280;64127;51.488;5.462;2024-01-07T06:07:30;101792.25;;;5.91
75431;BMP280;64127;51.488;5.462;2024-01-07T06:10:02;101799.28;;;5.92
75431;BMP280;64127;51.488;5.462;2024-01-07T06:12:34;101806.28;;;5.93
75431;BMP280;64127;51.488;5.462;2024-01-07T06:15:07;101801.53;;;5.87
75431;BMP280;64127;51.488;5.462;2024-01-07T06:17:39;101815.97;;;5.84
75431;BMP280;64127;51.488;5.462;2024-01-07T06:20:11;101818.88;;;5.77
75431;BMP280;64127;51.488;5.462;2024-01-07T06:22:43;101818.66;;;5.74
75431;BMP280;64127;51.488;5.462;2024-01-07T06:25:16;101822.72;;;5.70
75431;BMP280;64127;51.488;5.462;2024-01-07T06:27:48;101822.47;;;5.67
75431;BMP280;64127;51.488;5.462;2024-01-07T06:30:20;101838.69;;;5.75
75431;BMP280;64127;51.488;5.462;2024-01-07T06:32:53;101833.13;;;5.70
75431;BMP280;64127;51.488;5.462;2024-01-07T06:35:25;101847.03;;;5.71
75431;BMP280;64127;51.488;5.462;2024-01-07T06:37:57;101844.59;;;5.62
75431;BMP280;64127;51.488;5.462;2024-01-07T06:40:29;101848.13;;;5.62
75431;BMP280;64127;51.488;5.462;2024-01-07T06:43:01;101853.56;;;5.66
75431;BMP280;64127;51.488;5.462;2024-01-07T06:45:33;101857.50;;;5.60
75431;BMP280;64127;51.488;5.462;2024-01-07T06:48:06;101865.41;;;5.62
75431;BMP280;64127;51.488;5.462;2024-01-07T06:50:39;101865.91;;;5.68
75431;BMP280;64127;51.488;5.462;2024-01-07T06:53:11;101873.56;;;5.67
75431;BMP280;64127;51.488;5.462;2024-01-07T06:55:43;101878.53;;;5.63
75431;BMP280;64127;51.488;5.462;2024-01-07T06:58:15;101879.53;;;5.66
75431;BMP280;64127;51.488;5.462;2024-01-07T07:00:47;101881.50;;;5.68
75431;BMP280;64127;51.488;5.462;2024-01-07T07:03:19;101881.69;;;5.59
75431;BMP280;64127;51.488;5.462;2024-01-07T07:05:51;101888.31;;;5.56
75431;BMP280;64127;51.488;5.462;2024-01-07T07:08:23;101889.69;;;5.51
75431;BMP280;64127;51.488;5.462;2024-01-07T07:10:55;101893.16;;;5.51
75431;BMP280;64127;51.488;5.462;2024-01-07T07:13:27;101887.03;;;5.39
75431;BMP280;64127;51.488;5.462;2024-01-07T07:16:00;101882.13;;;5.32
75431;BMP280;64127;51.488;5.462;2024-01-07T07:18:32;101897.41;;;5.39
75431;BMP280;64127;51.488;5.462;2024-01-07T07:21:05;101900.53;;;5.35
75431;BMP280;64127;51.488;5.462;2024-01-07T07:23:37;101902.38;;;5.36
75431;BMP280;64127;51.488;5.462;2024-01-07T07:26:09;101909.88;;;5.43
75431;BMP280;64127;51.488;5.462;2024-01-07T07:28:41;101917.75;;;5.45
75431;BMP280;64127;51.488;5.462;2024-01-07T07:31:13;101927.28;;;5.44
75431;BMP280;64127;51.488;5.462;2024-01-07T07:33:45;101926.00;;;5.39
75431;BMP280;64127;51.488;5.462;2024-01-07T07:36:17;101931.72;;;5.35
75431;BMP280;64127;51.488;5.462;2024-01-07T07:38:49;101935.22;;;5.36
75431;BMP280;64127;51.488;5.462;2024-01-07T07:41:21;101927.06;;;5.31
75431;BMP280;64127;51.488;5.462;2024-01-07T07:43:53;101946.41;;;5.35
75431;BMP280;64127;51.488;5.462;2024-01-07T07:46:26;101954.09;;;5.33
75431;BMP280;64127;51.488;5.462;2024-01-07T07:48:58;101953.28;;;5.34
75431;BMP280;64127;51.488;5.462;2024-01-07T07:51:30;101963.03;;;5.37
75431;BMP280;64127;51.488;5.462;2024-01-07T07:54:02;101967.84;;;5.32
75431;BMP280;64127;51.488;5.462;2024-01-07T07:56:35;101972.16;;;5.32
75431;BMP280;64127;51.488;5.462;2024-01-07T07:59:07;101977.78;;;5.26
75431;BMP280;64127;51.488;5.462;2024-01-07T08:01:40;101983.34;;;5.31
75431;BMP280;64127;51.488;5.462;2024-01-07T08:04:12;101969.44;;;5.30
75431;BMP280;64127;51.488;5.462;2024-01-07T08:06:44;101978.78;;;5.82
75431;BMP280;64127;51.488;5.462;2024-01-07T08:09:17;101975.25;;;5.59
75431;BMP280;64127;51.488;5.462;2024-01-07T08:11:49;101972.94;;;5.52
75431;BMP280;64127;51.488;5.462;2024-01-07T08:14:21;101975.84;;;5.45
75431;BMP280;64127;51.488;5.462;2024-01-07T08:16:53;101995.09;;;5.47
75431;BMP280;64127;51.488;5.462;2024-01-07T08:19:25;101990.97;;;5.39
75431;BMP280;64127;51.488;5.462;2024-01-07T08:21:58;101995.66;;;5.33
75431;BMP280;64127;51.488;5.462;2024-01-07T08:24:30;101988.94;;;5.25
75431;BMP280;64127;51.488;5.462;2024-01-07T08:27:02;101999.47;;;5.27
75431;BMP280;64127;51.488;5.462;2024-01-07T08:29:37;102001.38;;;5.29
75431;BMP280;64127;51.488;5.462;2024-01-07T08:32:09;102010.78;;;5.27
75431;BMP280;64127;51.488;5.462;2024-01-07T08:34:41;102015.44;;;5.21
75431;BMP280;64127;51.488;5.462;2024-01-07T08:37:13;102010.81;;;5.17
75431;BMP280;64127;51.488;5.462;2024-01-07T08:39:45;102016.53;;;5.13
75431;BMP280;64127;51.488;5.462;2024-01-07T08:42:17;102016.53;;;5.13
75431;BMP280;64127;51.488;5.462;2024-01-07T08:44:49;102032.13;;;5.13
75431;BMP280;64127;51.488;5.462;2024-01-07T08:47:21;102025.88;;;5.11
75431;BMP280;64127;51.488;5.462;2024-01-07T08:49:53;102035.72;;;5.15
75431;BMP280;64127;51.488;5.462;2024-01-07T08:52:25;102039.38;;;5.17
75431;BMP280;64127;51.488;5.462;2024-01-07T08:54:58;102041.44;;;5.11
75431;BMP280;64127;51.488;5.462;2024-01-07T08:57:30;102045.63;;;5.09
75431;BMP280;64127;51.488;5.462;2024-01-07T09:00:03;102046.91;;;5.04
75431;BMP280;64127;51.488;5.462;2024-01-07T09:02:36;102043.06;;;4.99
75431;BMP280;64127;51.488;5.462;2024-01-07T09:05:13;102060.72;;;5.03
75431;BMP280;64127;51.488;5.462;2024-01-07T09:07:46;102066.78;;;5.03
75431;BMP280;64127;51.488;5.462;2024-01-07T09:10:18;102053.28;;;5.07
75431;BMP280;64127;51.488;5.462;2024-01-07T09:12:51;102038.34;;;5.05
75431;BMP280;64127;51.488;5.462;2024-01-07T09:15:25;102061.06;;;5.07
75431;BMP280;64127;51.488;5.462;2024-01-07T09:17:57;102065.38;;;4.97
75431;BMP280;64127;51.488;5.462;2024-01-07T09:20:30;102071.22;;;4.94
75431;BMP280;64127;51.488;5.462;2024-01-07T09:23:02;102070.31;;;4.94
75431;BMP280;64127;51.488;5.462;2024-01-07T09:25:34;102079.94;;;4.95
75431;BMP280;64127;51.488;5.462;2024-01-07T09:28:06;102084.09;;;4.93
75431;BMP280;64127;51.488;5.462;2024-01-07T09:30:38;102084.63;;;4.89
75431;BMP280;64127;51.488;5.462;2024-01-07T09:33:10;102098.09;;;4.95
75431;BMP280;64127;51.488;5.462;2024-01-07T09:35:42;102087.72;;;4.95
75431;BMP280;64127;51.488;5.462;2024-01-07T09:38:15;102099.78;;;4.94
75431;BMP280;64127;51.488;5.462;2024-01-07T09:40:49;102099.94;;;4.96
75431;BMP280;64127;51.488;5.462;2024-01-07T09:43:21;102118.88;;;4.95
75431;BMP280;64127;51.488;5.462;2024-01-07T09:45:57;102112.50;;;4.91
75431;BMP280;64127;51.488;5.462;2024-01-07T09:48:30;102115.50;;;4.96
75431;BMP280;64127;51.488;5.462;2024-01-07T09:51:04;102121.47;;;4.95
75431;BMP280;64127;51.488;5.462;2024-01-07T09:53:39;102119.38;;;4.91
75431;BMP280;64127;51.488;5.462;2024-01-07T09:56:25;102132.38;;;4.91
75431;BMP280;64127;51.488;5.462;2024-01-07T09:58:58;102129.13;;;4.93
75431;BMP280;64127;51.488;5.462;2024-01-07T10:01:32;102127.69;;;4.97
75431;BMP280;64127;51.488;5.462;2024-01-07T10:04:06;102118.09;;;4.96
75431;BMP280;64127;51.488;5.462;2024-01-07T10:06:38;102131.34;;;4.99
75431;BMP280;64127;51.488;5.462;2024-01-07T10:09:12;102136.03;;;4.93
75431;BMP280;64127;51.488;5.462;2024-01-07T10:11:44;102147.69;;;4.88
75431;BMP280;64127;51.488;5.462;2024-01-07T10:14:16;102138.63;;;4.83
75431;BMP280;64127;51.488;5.462;2024-01-07T10:16:49;102149.63;;;4.80
75431;BMP280;64127;51.488;5.462;2024-01-07T10:19:23;102156.13;;;4.75
75431;BMP280;64127;51.488;5.462;2024-01-07T10:22:03;102160.94;;;4.71
75431;BMP280;64127;51.488;5.462;2024-01-07T10:24:42;102163.78;;;4.74
75431;BMP280;64127;51.488;5.462;2024-01-07T10:27:18;102156.91;;;4.74
75431;BMP280;64127;51.488;5.462;2024-01-07T10:29:50;102149.88;;;4.83
75431;BMP280;64127;51.488;5.462;2024-01-07T10:32:22;102153.81;;;4.88
75431;BMP280;64127;51.488;5.462;2024-01-07T10:35:02;102154.47;;;4.86
75431;BMP280;64127;51.488;5.462;2024-01-07T10:37:38;102156.66;;;4.81
75431;BMP280;64127;51.488;5.462;2024-01-07T10:40:12;102159.34;;;4.73
75431;BMP280;64127;51.488;5.462;2024-01-07T10:42:46;102161.59;;;4.78
75431;BMP280;64127;51.488;5.462;2024-01-07T10:45:18;102129.00;;;4.62
75431;BMP280;64127;51.488;5.462;2024-01-07T10:47:54;102161.19;;;4.74
75431;BMP280;64127;51.488;5.462;2024-01-07T10:50:27;102162.59;;;4.70
75431;BMP280;64127;51.488;5.462;2024-01-07T10:53:04;102153.13;;;4.71
75431;BMP280;64127;51.488;5.462;2024-01-07T10:55:40;102159.91;;;4.79
75431;BMP280;64127;51.488;5.462;2024-01-07T10:58:18;102163.28;;;4.78
75431;BMP280;64127;51.488;5.462;2024-01-07T11:00:52;102164.28;;;4.80
75431;BMP280;64127;51.488;5.462;2024-01-07T11:04:08;102158.22;;;4.79
75431;BMP280;64127;51.488;5.462;2024-01-07T11:06:59;102166.53;;;4.75
75431;BMP280;64127;51.488;5.462;2024-01-07T11:09:50;102171.06;;;4.78
75431;BMP280;64127;51.488;5.462;2024-01-07T11:12:25;102166.53;;;4.75
75431;BMP280;64127;51.488;5.462;2024-01-07T11:14:57;102168.06;;;4.73
75431;BMP280;64127;51.488;5.462;2024-01-07T11:17:40;102171.31;;;4.71
75431;BMP280;64127;51.488;5.462;2024-01-07T11:20:20;102169.63;;;4.71
75431;BMP280;64127;51.488;5.462;2024-01-07T11:26:05;102166.63;;;4.77
75431;BMP280;64127;51.488;5.462;2024-01-07T11:28:45;102174.41;;;4.77
75431;BMP280;64127;51.488;5.462;2024-01-07T11:31:43;102175.34;;;4.77
75431;BMP280;64127;51.488;5.462;2024-01-07T11:34:41;102179.63;;;4.77
75431;BMP280;64127;51.488;5.462;2024-01-07T11:37:15;102165.72;;;4.76
75431;BMP280;64127;51.488;5.462;2024-01-07T11:39:51;102178.59;;;4.85
75431;BMP280;64127;51.488;5.462;2024-01-07T11:42:23;102177.03;;;4.87
75431;BMP280;64127;51.488;5.462;2024-01-07T11:44:55;102174.06;;;4.82
75431;BMP280;64127;51.488;5.462;2024-01-07T11:47:28;102175.47;;;4.79
75431;BMP280;64127;51.488;5.462;2024-01-07T11:50:00;102172.88;;;4.79
75431;BMP280;64127;51.488;5.462;2024-01-07T11:52:33;102169.22;;;4.77
75431;BMP280;64127;51.488;5.462;2024-01-07T11:55:08;102172.09;;;4.80
75431;BMP280;64127;51.488;5.462;2024-01-07T11:57:42;102168.72;;;4.81
75431;BMP280;64127;51.488;5.462;2024-01-07T12:00:14;102165.59;;;4.75
75431;BMP280;64127;51.488;5.462;2024-01-07T12:02:47;102163.28;;;4.78
75431;BMP280;64127;51.488;5.462;2024-01-07T12:05:19;102173.25;;;4.83
75431;BMP280;64127;51.488;5.462;2024-01-07T12:07:51;102168.88;;;4.82
75431;BMP280;64127;51.488;5.462;2024-01-07T12:10:24;102173.41;;;4.85
75431;BMP280;64127;51.488;5.462;2024-01-07T12:12:56;102171.56;;;4.84
75431;BMP280;64127;51.488;5.462;2024-01-07T12:15:29;102158.59;;;4.74
75431;BMP280;64127;51.488;5.462;2024-01-07T12:18:01;102180.16;;;4.83
75431;BMP280;64127;51.488;5.462;2024-01-07T12:20:34;102177.81;;;4.76
75431;BMP280;64127;51.488;5.462;2024-01-07T12:23:10;102187.38;;;4.67
75431;BMP280;64127;51.488;5.462;2024-01-07T12:25:42;102185.59;;;4.66
75431;BMP280;64127;51.488;5.462;2024-01-07T12:28:16;102187.03;;;4.72
75431;BMP280;64127;51.488;5.462;2024-01-07T12:30:49;102183.38;;;4.70
75431;BMP280;64127;51.488;5.462;2024-01-07T12:33:21;102193.41;;;4.76
75431;BMP280;64127;51.488;5.462;2024-01-07T12:35:53;102210.25;;;4.71
75431;BMP280;64127;51.488;5.462;2024-01-07T12:38:26;102197.25;;;4.71
75431;BMP280;64127;51.488;5.462;2024-01-07T12:40:58;102205.03;;;4.60
75431;BMP280;64127;51.488;5.462;2024-01-07T12:43:30;102195.69;;;4.63
75431;BMP280;64127;51.488;5.462;2024-01-07T12:46:03;102186.09;;;4.62
75431;BMP280;64127;51.488;5.462;2024-01-07T12:48:37;102190.78;;;4.66
75431;BMP280;64127;51.488;5.462;2024-01-07T12:51:10;102196.75;;;4.65
75431;BMP280;64127;51.488;5.462;2024-01-07T12:53:43;102199.34;;;4.65
75431;BMP280;64127;51.488;5.462;2024-01-07T12:56:15;102198.69;;;4.67
75431;BMP280;64127;51.488;5.462;2024-01-07T12:58:47;102206.22;;;4.74
75431;BMP280;64127;51.488;5.462;2024-01-07T13:01:19;102203.78;;;4.76
75431;BMP280;64127;51.488;5.462;2024-01-07T13:03:51;102210.50;;;4.74
75431;BMP280;64127;51.488;5.462;2024-01-07T13:06:23;102212.59;;;4.78
75431;BMP280;64127;51.488;5.462;2024-01-07T13:08:55;102215.03;;;4.76
75431;BMP280;64127;51.488;5.462;2024-01-07T13:11:27;102225.06;;;4.82
75431;BMP280;64127;51.488;5.462;2024-01-07T13:13:59;102225.34;;;4.85
75431;BMP280;64127;51.488;5.462;2024-01-07T13:16:34;102225.72;;;4.79
75431;BMP280;64127;51.488;5.462;2024-01-07T13:19:06;102220.63;;;4.71
75431;BMP280;64127;51.488;5.462;2024-01-07T13:21:38;102225.56;;;4.68
75431;BMP280;64127;51.488;5.462;2024-01-07T13:24:13;102236.97;;;4.70
75431;BMP280;64127;51.488;5.462;2024-01-07T13:26:45;102241.63;;;4.64
75431;BMP280;64127;51.488;5.462;2024-01-07T13:29:17;102243.44;;;4.54
75431;BMP280;64127;51.488;5.462;2024-01-07T13:31:49;102249.88;;;4.49
75431;BMP280;64127;51.488;5.462;2024-01-07T13:34:21;102241.34;;;4.50
75431;BMP280;64127;51.488;5.462;2024-01-07T13:36:54;102245.63;;;4.50
75431;BMP280;64127;51.488;5.462;2024-01-07T13:39:27;102249.88;;;4.49
75431;BMP280;64127;51.488;5.462;2024-01-07T13:41:59;102251.34;;;4.56
75431;BMP280;64127;51.488;5.462;2024-01-07T13:44:31;102251.59;;;4.59
75431;BMP280;64127;51.488;5.462;2024-01-07T13:47:06;102252.25;;;4.56
75431;BMP280;64127;51.488;5.462;2024-01-07T13:49:39;102263.53;;;4.57
75431;BMP280;64127;51.488;5.462;2024-01-07T13:52:11;102257.31;;;4.55
75431;BMP280;64127;51.488;5.462;2024-01-07T13:54:46;102266.91;;;4.56
75431;BMP280;64127;51.488;5.462;2024-01-07T13:57:19;102278.47;;;4.59
75431;BMP280;64127;51.488;5.462;2024-01-07T13:59:52;102271.47;;;4.58
75431;BMP280;64127;51.488;5.462;2024-01-07T14:02:24;102282.34;;;4.54
75431;BMP280;64127;51.488;5.462;2024-01-07T14:04:56;102284.13;;;4.45
75431;BMP280;64127;51.488;5.462;2024-01-07T14:07:28;102285.41;;;4.40
75431;BMP280;64127;51.488;5.462;2024-01-07T14:10:00;102279.69;;;4.34
75431;BMP280;64127;51.488;5.462;2024-01-07T14:12:35;102289.47;;;4.28
75431;BMP280;64127;51.488;5.462;2024-01-07T14:15:08;102289.09;;;4.24
75431;BMP280;64127;51.488;5.462;2024-01-07T14:17:41;102301.91;;;4.22
75431;BMP280;64127;51.488;5.462;2024-01-07T14:20:14;102294.94;;;4.21
75431;BMP280;64127;51.488;5.462;2024-01-07T14:22:46;102291.16;;;4.18
75431;BMP280;64127;51.488;5.462;2024-01-07T14:25:18;102300.00;;;4.30
75431;BMP280;64127;51.488;5.462;2024-01-07T14:27:51;102302.22;;;4.35
75431;BMP280;64127;51.488;5.462;2024-01-07T14:30:23;102300.00;;;4.30
75431;BMP280;64127;51.488;5.462;2024-01-07T14:32:55;102324.28;;;4.30
75431;BMP280;64127;51.488;5.462;2024-01-07T14:35:28;102318.03;;;4.28
75431;BMP280;64127;51.488;5.462;2024-01-07T14:38:02;102324.91;;;4.28
75431;BMP280;64127;51.488;5.462;2024-01-07T14:40:37;102328.28;;;4.27
75431;BMP280;64127;51.488;5.462;2024-01-07T14:43:09;102326.81;;;4.20
75431;BMP280;64127;51.488;5.462;2024-01-07T14:45:41;102330.16;;;4.19